NGN4830 EDDG-LGIR
Flight info
| Callsign | NGN4830 |
|---|---|
| Flight time | 3h 0m |
| Altitude | 37000 |
| Route | DOMEG3Y DOMEG Z841 GMH Q603 TESGA L603 BOMBI T104 XERUM DCT BAVAX DCT RADIZ DCT NEMEK DCT GACMO DCT MAVAR DCT BITLA UN132 KEA UL607 NETIS/N0380F230 L607 GIVIS T514 XAVIS |
| Aircraft | A320/M-SDE3FGHIRWY/LB1 |
Departure
| Time | 2026-05-06 12:32 |
|---|---|
| Airport | Münster Osnabrück Airport (EDDG) |
Arrival
| Time | 2026-05-06 15:33 |
|---|---|
| Airport | Heraklion International Nikos Kazantzakis Airport (LGIR) |
| Time | Latitude | Longitude | Altitude | Speed | Heading |
|---|---|---|---|---|---|
| 2026-05-06 11:57 | 52.13154 | 7.69300 | 168 ft | 0 kts | 196° |
| 2026-05-06 12:25 | 52.13160 | 7.69303 | 167 ft | 4 kts | 196° |
| 2026-05-06 12:25 | 52.13186 | 7.69315 | 167 ft | 4 kts | 198° |
| 2026-05-06 12:25 | 52.13211 | 7.69331 | 167 ft | 4 kts | 210° |
| 2026-05-06 12:26 | 52.13232 | 7.69357 | 167 ft | 4 kts | 238° |
| 2026-05-06 12:26 | 52.13237 | 7.69371 | 167 ft | 0 kts | 251° |
| 2026-05-06 12:28 | 52.13240 | 7.69333 | 167 ft | 7 kts | 300° |
| 2026-05-06 12:28 | 52.13312 | 7.69288 | 167 ft | 15 kts | 342° |
| 2026-05-06 12:29 | 52.13421 | 7.69220 | 167 ft | 16 kts | 317° |
| 2026-05-06 12:29 | 52.13410 | 7.69048 | 167 ft | 16 kts | 251° |
| 2026-05-06 12:29 | 52.13370 | 7.68867 | 140 ft | 18 kts | 250° |
| 2026-05-06 12:29 | 52.13329 | 7.68667 | 168 ft | 19 kts | 251° |
| 2026-05-06 12:30 | 52.13284 | 7.68456 | 168 ft | 20 kts | 251° |
| 2026-05-06 12:30 | 52.13237 | 7.68233 | 168 ft | 22 kts | 251° |
| 2026-05-06 12:30 | 52.13185 | 7.67997 | 167 ft | 23 kts | 250° |
| 2026-05-06 12:30 | 52.13131 | 7.67744 | 167 ft | 24 kts | 252° |
| 2026-05-06 12:31 | 52.13075 | 7.67476 | 167 ft | 26 kts | 251° |
| 2026-05-06 12:31 | 52.13025 | 7.67211 | 167 ft | 22 kts | 266° |
| 2026-05-06 12:31 | 52.13102 | 7.67050 | 167 ft | 17 kts | 340° |
| 2026-05-06 12:31 | 52.13173 | 7.67105 | 166 ft | 15 kts | 71° |
| 2026-05-06 12:32 | 52.13239 | 7.67412 | 165 ft | 55 kts | 70° |
| 2026-05-06 12:32 | 52.13432 | 7.68328 | 169 ft | 113 kts | 71° |
| 2026-05-06 12:32 | 52.13731 | 7.69748 | 225 ft | 150 kts | 69° |
| 2026-05-06 12:32 | 52.14035 | 7.71313 | 899 ft | 141 kts | 73° |
| 2026-05-06 12:33 | 52.13797 | 7.72936 | 1366 ft | 161 kts | 131° |
| 2026-05-06 12:33 | 52.12768 | 7.73573 | 1939 ft | 174 kts | 184° |
| 2026-05-06 12:33 | 52.11618 | 7.72679 | 2269 ft | 197 kts | 216° |
| 2026-05-06 12:33 | 52.10436 | 7.71293 | 2548 ft | 215 kts | 207° |
| 2026-05-06 12:34 | 52.08981 | 7.70610 | 2824 ft | 233 kts | 184° |
| 2026-05-06 12:34 | 52.07290 | 7.70223 | 3169 ft | 257 kts | 188° |
| 2026-05-06 12:34 | 52.05485 | 7.69658 | 3830 ft | 268 kts | 190° |
| 2026-05-06 12:34 | 52.03637 | 7.69032 | 4647 ft | 275 kts | 191° |
| 2026-05-06 12:35 | 52.01752 | 7.68393 | 5332 ft | 277 kts | 191° |
| 2026-05-06 12:35 | 51.99862 | 7.67763 | 6274 ft | 278 kts | 191° |
| 2026-05-06 12:35 | 51.97960 | 7.67143 | 7101 ft | 280 kts | 191° |
| 2026-05-06 12:35 | 51.96031 | 7.66528 | 7914 ft | 284 kts | 191° |
| 2026-05-06 12:36 | 51.94079 | 7.65912 | 8733 ft | 287 kts | 192° |
| 2026-05-06 12:36 | 51.92111 | 7.65292 | 9570 ft | 290 kts | 192° |
| 2026-05-06 12:36 | 51.90111 | 7.64662 | 10196 ft | 300 kts | 192° |
| 2026-05-06 12:36 | 51.87983 | 7.63993 | 10373 ft | 322 kts | 192° |
| 2026-05-06 12:37 | 51.85730 | 7.63291 | 10787 ft | 334 kts | 192° |
| 2026-05-06 12:37 | 51.83437 | 7.62579 | 11460 ft | 337 kts | 192° |
| 2026-05-06 12:37 | 51.81125 | 7.61863 | 12167 ft | 339 kts | 192° |
| 2026-05-06 12:37 | 51.78795 | 7.61147 | 12872 ft | 342 kts | 192° |
| 2026-05-06 12:38 | 51.76445 | 7.60423 | 13577 ft | 345 kts | 192° |
| 2026-05-06 12:38 | 51.74083 | 7.59695 | 14204 ft | 347 kts | 192° |
| 2026-05-06 12:38 | 51.71658 | 7.59350 | 14795 ft | 353 kts | 180° |
| 2026-05-06 12:38 | 51.69208 | 7.59822 | 15385 ft | 358 kts | 168° |
| 2026-05-06 12:39 | 51.66823 | 7.61053 | 15970 ft | 362 kts | 162° |
| 2026-05-06 12:39 | 51.64438 | 7.62432 | 16559 ft | 365 kts | 162° |
| 2026-05-06 12:39 | 51.62038 | 7.63810 | 17151 ft | 368 kts | 162° |
| 2026-05-06 12:39 | 51.59608 | 7.65196 | 17814 ft | 372 kts | 162° |
| 2026-05-06 12:40 | 51.57160 | 7.66585 | 18477 ft | 376 kts | 162° |
| 2026-05-06 12:40 | 51.55483 | 7.67535 | 18923 ft | 378 kts | 162° |
| 2026-05-06 12:40 | 51.52991 | 7.68948 | 19587 ft | 382 kts | 162° |
| 2026-05-06 12:40 | 51.50477 | 7.70376 | 20252 ft | 386 kts | 162° |
| 2026-05-06 12:41 | 51.47932 | 7.71820 | 20902 ft | 390 kts | 162° |
| 2026-05-06 12:41 | 51.45360 | 7.73271 | 21483 ft | 394 kts | 162° |
| 2026-05-06 12:41 | 51.42757 | 7.74737 | 22053 ft | 397 kts | 162° |
| 2026-05-06 12:41 | 51.40147 | 7.76213 | 22575 ft | 400 kts | 162° |
| 2026-05-06 12:42 | 51.37507 | 7.77703 | 23063 ft | 403 kts | 161° |
| 2026-05-06 12:42 | 51.34848 | 7.79205 | 23519 ft | 407 kts | 161° |
| 2026-05-06 12:42 | 51.32171 | 7.80716 | 23924 ft | 409 kts | 161° |
| 2026-05-06 12:42 | 51.29480 | 7.82235 | 24329 ft | 411 kts | 161° |
| 2026-05-06 12:43 | 51.26774 | 7.83757 | 24743 ft | 413 kts | 161° |
| 2026-05-06 12:43 | 51.24091 | 7.85263 | 25137 ft | 415 kts | 161° |
| 2026-05-06 12:43 | 51.21360 | 7.86791 | 25540 ft | 417 kts | 161° |
| 2026-05-06 12:43 | 51.18619 | 7.88337 | 25938 ft | 418 kts | 159° |
| 2026-05-06 12:44 | 51.15950 | 7.90350 | 26324 ft | 421 kts | 149° |
| 2026-05-06 12:44 | 51.13476 | 7.92857 | 26700 ft | 422 kts | 147° |
| 2026-05-06 12:44 | 51.11001 | 7.95399 | 27109 ft | 425 kts | 147° |
| 2026-05-06 12:44 | 51.08542 | 7.97911 | 27484 ft | 426 kts | 148° |
| 2026-05-06 12:45 | 51.06035 | 8.00449 | 27866 ft | 428 kts | 148° |
| 2026-05-06 12:45 | 51.03513 | 8.02992 | 28236 ft | 430 kts | 148° |
| 2026-05-06 12:45 | 50.98428 | 8.08119 | 28922 ft | 435 kts | 148° |
| 2026-05-06 12:46 | 50.95868 | 8.10701 | 29268 ft | 438 kts | 148° |
| 2026-05-06 12:46 | 50.93290 | 8.13301 | 29606 ft | 440 kts | 148° |
| 2026-05-06 12:46 | 50.90705 | 8.15911 | 29959 ft | 441 kts | 149° |
| 2026-05-06 12:46 | 50.88122 | 8.18521 | 30379 ft | 439 kts | 149° |
| 2026-05-06 12:47 | 50.85546 | 8.21117 | 30800 ft | 438 kts | 149° |
| 2026-05-06 12:47 | 50.82980 | 8.23697 | 31221 ft | 437 kts | 150° |
| 2026-05-06 12:47 | 50.80415 | 8.26260 | 31648 ft | 435 kts | 150° |
| 2026-05-06 12:47 | 50.77859 | 8.28809 | 32092 ft | 434 kts | 150° |
| 2026-05-06 12:48 | 50.75306 | 8.31354 | 32528 ft | 433 kts | 151° |
| 2026-05-06 12:48 | 50.72764 | 8.33889 | 32970 ft | 432 kts | 151° |
| 2026-05-06 12:48 | 50.70230 | 8.36417 | 33400 ft | 430 kts | 151° |
| 2026-05-06 12:48 | 50.67739 | 8.38897 | 33828 ft | 429 kts | 151° |
| 2026-05-06 12:49 | 50.65221 | 8.41400 | 34164 ft | 429 kts | 151° |
| 2026-05-06 12:49 | 50.62708 | 8.43893 | 34476 ft | 428 kts | 151° |
| 2026-05-06 12:49 | 50.60186 | 8.46397 | 34760 ft | 428 kts | 151° |
| 2026-05-06 12:49 | 50.57653 | 8.48907 | 35055 ft | 429 kts | 151° |
| 2026-05-06 12:50 | 50.55131 | 8.51405 | 35332 ft | 429 kts | 151° |
| 2026-05-06 12:50 | 50.52602 | 8.53905 | 35598 ft | 429 kts | 151° |
| 2026-05-06 12:50 | 50.50071 | 8.56396 | 35852 ft | 429 kts | 151° |
| 2026-05-06 12:50 | 50.47533 | 8.58884 | 36116 ft | 430 kts | 151° |
| 2026-05-06 12:51 | 50.44955 | 8.61246 | 36366 ft | 427 kts | 158° |
| 2026-05-06 12:51 | 50.42211 | 8.62964 | 36586 ft | 424 kts | 166° |
| 2026-05-06 12:51 | 50.39378 | 8.64294 | 36740 ft | 425 kts | 166° |
| 2026-05-06 12:52 | 50.33765 | 8.66913 | 36772 ft | 431 kts | 166° |
| 2026-05-06 12:52 | 50.28008 | 8.69615 | 36774 ft | 432 kts | 166° |
| 2026-05-06 12:53 | 50.22244 | 8.72319 | 36778 ft | 431 kts | 166° |
| 2026-05-06 12:53 | 50.16493 | 8.74998 | 36773 ft | 430 kts | 166° |
| 2026-05-06 12:54 | 50.10797 | 8.77640 | 36782 ft | 430 kts | 166° |
| 2026-05-06 12:54 | 50.05226 | 8.81231 | 36784 ft | 436 kts | 150° |
| 2026-05-06 12:55 | 50.00566 | 8.87245 | 36784 ft | 440 kts | 141° |
| 2026-05-06 12:55 | 49.96043 | 8.93655 | 36782 ft | 440 kts | 141° |
| 2026-05-06 12:56 | 49.91505 | 9.00045 | 36781 ft | 440 kts | 141° |
| 2026-05-06 12:56 | 49.86963 | 9.06437 | 36782 ft | 440 kts | 141° |
| 2026-05-06 12:57 | 49.82419 | 9.12806 | 36785 ft | 441 kts | 142° |
| 2026-05-06 12:57 | 49.77835 | 9.19203 | 36787 ft | 441 kts | 142° |
| 2026-05-06 12:58 | 49.73279 | 9.25550 | 36787 ft | 441 kts | 142° |
| 2026-05-06 12:58 | 49.68743 | 9.31862 | 36790 ft | 441 kts | 142° |
| 2026-05-06 12:59 | 49.64175 | 9.38198 | 36785 ft | 441 kts | 142° |
| 2026-05-06 12:59 | 49.59839 | 9.44944 | 36785 ft | 445 kts | 135° |
| 2026-05-06 13:00 | 49.55760 | 9.52123 | 36786 ft | 446 kts | 135° |
| 2026-05-06 13:00 | 49.51664 | 9.59298 | 36784 ft | 446 kts | 135° |
| 2026-05-06 13:01 | 49.47563 | 9.66470 | 36787 ft | 447 kts | 135° |
| 2026-05-06 13:01 | 49.43442 | 9.73637 | 36790 ft | 447 kts | 136° |
| 2026-05-06 13:02 | 49.39318 | 9.80804 | 36790 ft | 448 kts | 136° |
| 2026-05-06 13:02 | 49.35178 | 9.87969 | 36798 ft | 449 kts | 136° |
| 2026-05-06 13:03 | 49.31036 | 9.95110 | 36811 ft | 448 kts | 136° |
| 2026-05-06 13:03 | 49.26892 | 10.02237 | 36811 ft | 447 kts | 136° |
| 2026-05-06 13:04 | 49.22752 | 10.09337 | 36815 ft | 447 kts | 136° |
| 2026-05-06 13:04 | 49.18607 | 10.16422 | 36818 ft | 447 kts | 137° |
| 2026-05-06 13:05 | 49.14464 | 10.23493 | 36823 ft | 447 kts | 137° |
| 2026-05-06 13:05 | 49.10286 | 10.30419 | 36831 ft | 445 kts | 139° |
| 2026-05-06 13:06 | 49.06005 | 10.37224 | 36836 ft | 444 kts | 139° |
| 2026-05-06 13:06 | 49.01692 | 10.44047 | 36841 ft | 444 kts | 139° |
| 2026-05-06 13:07 | 48.97427 | 10.50837 | 36849 ft | 443 kts | 139° |
| 2026-05-06 13:07 | 48.93179 | 10.57631 | 36846 ft | 443 kts | 139° |
| 2026-05-06 13:08 | 48.88924 | 10.64408 | 36847 ft | 442 kts | 139° |
| 2026-05-06 13:08 | 48.84692 | 10.71109 | 36840 ft | 442 kts | 140° |
| 2026-05-06 13:09 | 48.80430 | 10.77843 | 36830 ft | 442 kts | 139° |
| 2026-05-06 13:09 | 48.76274 | 10.84723 | 36811 ft | 443 kts | 137° |
| 2026-05-06 13:10 | 48.72182 | 10.91720 | 36797 ft | 443 kts | 137° |
| 2026-05-06 13:10 | 48.68200 | 10.98463 | 36789 ft | 443 kts | 138° |
| 2026-05-06 13:11 | 48.64056 | 11.05362 | 36782 ft | 443 kts | 138° |
| 2026-05-06 13:11 | 48.59907 | 11.12238 | 36782 ft | 443 kts | 138° |
| 2026-05-06 13:12 | 48.55765 | 11.19121 | 36780 ft | 443 kts | 138° |
| 2026-05-06 13:12 | 48.51609 | 11.25990 | 36780 ft | 443 kts | 138° |
| 2026-05-06 13:13 | 48.47449 | 11.32861 | 36775 ft | 443 kts | 138° |
| 2026-05-06 13:13 | 48.43295 | 11.39718 | 36776 ft | 443 kts | 138° |
| 2026-05-06 13:14 | 48.39128 | 11.46569 | 36777 ft | 443 kts | 139° |
| 2026-05-06 13:14 | 48.34952 | 11.53399 | 36777 ft | 443 kts | 139° |
| 2026-05-06 13:15 | 48.30770 | 11.60219 | 36777 ft | 444 kts | 139° |
| 2026-05-06 13:15 | 48.26583 | 11.67034 | 36779 ft | 444 kts | 140° |
| 2026-05-06 13:16 | 48.22210 | 11.73504 | 36778 ft | 440 kts | 143° |
| 2026-05-06 13:16 | 48.17649 | 11.79619 | 36774 ft | 439 kts | 145° |
| 2026-05-06 13:17 | 48.13081 | 11.85697 | 36764 ft | 440 kts | 144° |
| 2026-05-06 13:17 | 48.08545 | 11.91858 | 36760 ft | 440 kts | 144° |
| 2026-05-06 13:18 | 48.04022 | 11.98047 | 36757 ft | 441 kts | 144° |
| 2026-05-06 13:18 | 47.99498 | 12.04226 | 36761 ft | 440 kts | 144° |
| 2026-05-06 13:19 | 47.95734 | 12.09337 | 36755 ft | 440 kts | 144° |
| 2026-05-06 13:19 | 47.91201 | 12.15476 | 36756 ft | 440 kts | 144° |
| 2026-05-06 13:20 | 47.86677 | 12.21595 | 36763 ft | 439 kts | 144° |
| 2026-05-06 13:20 | 47.82155 | 12.27697 | 36762 ft | 439 kts | 144° |
| 2026-05-06 13:21 | 47.77636 | 12.33784 | 36765 ft | 438 kts | 145° |
| 2026-05-06 13:21 | 47.73116 | 12.39858 | 36762 ft | 438 kts | 145° |
| 2026-05-06 13:22 | 47.68591 | 12.45906 | 36762 ft | 437 kts | 145° |
| 2026-05-06 13:22 | 47.64058 | 12.51934 | 36759 ft | 438 kts | 145° |
| 2026-05-06 13:23 | 47.59555 | 12.58051 | 36761 ft | 440 kts | 143° |
| 2026-05-06 13:23 | 47.55150 | 12.64365 | 36753 ft | 441 kts | 143° |
| 2026-05-06 13:24 | 47.50748 | 12.70688 | 36756 ft | 441 kts | 143° |
| 2026-05-06 13:24 | 47.46313 | 12.76962 | 36770 ft | 441 kts | 143° |
| 2026-05-06 13:25 | 47.41898 | 12.83147 | 36778 ft | 440 kts | 144° |
| 2026-05-06 13:25 | 47.37453 | 12.89356 | 36789 ft | 440 kts | 144° |
| 2026-05-06 13:26 | 47.33017 | 12.95564 | 36790 ft | 440 kts | 144° |
| 2026-05-06 13:26 | 47.28572 | 13.01775 | 36795 ft | 439 kts | 143° |
| 2026-05-06 13:27 | 47.24139 | 13.07961 | 36794 ft | 439 kts | 143° |
| 2026-05-06 13:27 | 47.19697 | 13.14134 | 36807 ft | 440 kts | 143° |
| 2026-05-06 13:28 | 47.15243 | 13.20306 | 36818 ft | 440 kts | 143° |
| 2026-05-06 13:28 | 47.10780 | 13.26479 | 36827 ft | 442 kts | 143° |
| 2026-05-06 13:29 | 47.06293 | 13.32658 | 36829 ft | 443 kts | 143° |
| 2026-05-06 13:29 | 47.01788 | 13.38835 | 36842 ft | 444 kts | 143° |
| 2026-05-06 13:30 | 46.97268 | 13.45038 | 36854 ft | 446 kts | 142° |
| 2026-05-06 13:30 | 46.92740 | 13.51241 | 36861 ft | 447 kts | 142° |
| 2026-05-06 13:31 | 46.88178 | 13.57463 | 36880 ft | 449 kts | 143° |
| 2026-05-06 13:31 | 46.83611 | 13.63697 | 36893 ft | 449 kts | 142° |
| 2026-05-06 13:32 | 46.79037 | 13.69912 | 36891 ft | 450 kts | 142° |
| 2026-05-06 13:32 | 46.74457 | 13.76120 | 36885 ft | 449 kts | 142° |
| 2026-05-06 13:33 | 46.69879 | 13.82305 | 36891 ft | 449 kts | 142° |
| 2026-05-06 13:33 | 46.65287 | 13.88497 | 36899 ft | 450 kts | 142° |
| 2026-05-06 13:34 | 46.60701 | 13.94665 | 36901 ft | 449 kts | 142° |
| 2026-05-06 13:34 | 46.56119 | 14.00824 | 36900 ft | 448 kts | 142° |
| 2026-05-06 13:35 | 46.51529 | 14.06976 | 36906 ft | 448 kts | 142° |
| 2026-05-06 13:35 | 46.46974 | 14.13063 | 36910 ft | 447 kts | 143° |
| 2026-05-06 13:36 | 46.42399 | 14.19162 | 36918 ft | 447 kts | 143° |
| 2026-05-06 13:36 | 46.37811 | 14.25264 | 36952 ft | 447 kts | 143° |
| 2026-05-06 13:37 | 46.33226 | 14.31338 | 36957 ft | 446 kts | 143° |
| 2026-05-06 13:37 | 46.28649 | 14.37399 | 36959 ft | 446 kts | 143° |
| 2026-05-06 13:38 | 46.24069 | 14.43448 | 36960 ft | 446 kts | 143° |
| 2026-05-06 13:38 | 46.19486 | 14.49479 | 36961 ft | 445 kts | 143° |
| 2026-05-06 13:39 | 46.14905 | 14.55504 | 36960 ft | 445 kts | 143° |
| 2026-05-06 13:39 | 46.10320 | 14.61509 | 36959 ft | 445 kts | 143° |
| 2026-05-06 13:40 | 46.05739 | 14.67504 | 36957 ft | 445 kts | 143° |
| 2026-05-06 13:40 | 46.01150 | 14.73493 | 36959 ft | 445 kts | 143° |
| 2026-05-06 13:41 | 45.96559 | 14.79454 | 36960 ft | 445 kts | 143° |
| 2026-05-06 13:41 | 45.91968 | 14.85427 | 36961 ft | 445 kts | 143° |
| 2026-05-06 13:42 | 45.87383 | 14.91390 | 36958 ft | 444 kts | 143° |
| 2026-05-06 13:42 | 45.82785 | 14.97335 | 36960 ft | 445 kts | 143° |
| 2026-05-06 13:43 | 45.78191 | 15.03253 | 36954 ft | 444 kts | 143° |
| 2026-05-06 13:43 | 45.73596 | 15.09150 | 36951 ft | 444 kts | 143° |
| 2026-05-06 13:44 | 45.69000 | 15.15048 | 36944 ft | 444 kts | 143° |
| 2026-05-06 13:44 | 45.64406 | 15.20940 | 36941 ft | 444 kts | 144° |
| 2026-05-06 13:45 | 45.59804 | 15.26815 | 36940 ft | 443 kts | 144° |
| 2026-05-06 13:45 | 45.53023 | 15.35827 | 36939 ft | 446 kts | 140° |
| 2026-05-06 13:46 | 45.48706 | 15.42119 | 36934 ft | 447 kts | 140° |
| 2026-05-06 13:46 | 45.44329 | 15.48475 | 36936 ft | 446 kts | 140° |
| 2026-05-06 13:47 | 45.39962 | 15.54672 | 36936 ft | 446 kts | 141° |
| 2026-05-06 13:47 | 45.35548 | 15.60878 | 36941 ft | 446 kts | 141° |
| 2026-05-06 13:48 | 45.31126 | 15.67072 | 36942 ft | 446 kts | 141° |
| 2026-05-06 13:48 | 45.26712 | 15.73256 | 36948 ft | 446 kts | 141° |
| 2026-05-06 13:49 | 45.22296 | 15.79451 | 36936 ft | 446 kts | 141° |
| 2026-05-06 13:49 | 45.17880 | 15.85630 | 36944 ft | 446 kts | 141° |
| 2026-05-06 13:50 | 45.13456 | 15.91807 | 36938 ft | 446 kts | 141° |
| 2026-05-06 13:50 | 45.09033 | 15.97977 | 36942 ft | 446 kts | 141° |
| 2026-05-06 13:51 | 45.04600 | 16.04127 | 36937 ft | 446 kts | 141° |
| 2026-05-06 13:51 | 45.00161 | 16.10257 | 36923 ft | 446 kts | 141° |
| 2026-05-06 13:52 | 44.95714 | 16.16397 | 36926 ft | 447 kts | 141° |
| 2026-05-06 13:52 | 44.91268 | 16.22541 | 36926 ft | 448 kts | 141° |
| 2026-05-06 13:53 | 44.86802 | 16.28676 | 36930 ft | 448 kts | 141° |
| 2026-05-06 13:53 | 44.82336 | 16.34809 | 36931 ft | 448 kts | 141° |
| 2026-05-06 13:54 | 44.77868 | 16.40925 | 36942 ft | 448 kts | 141° |
| 2026-05-06 13:54 | 44.73395 | 16.47027 | 36938 ft | 448 kts | 141° |
| 2026-05-06 13:55 | 44.68916 | 16.53133 | 36941 ft | 448 kts | 141° |
| 2026-05-06 13:55 | 44.64434 | 16.59218 | 36941 ft | 448 kts | 141° |
| 2026-05-06 13:56 | 44.59971 | 16.65258 | 36950 ft | 448 kts | 141° |
| 2026-05-06 13:56 | 44.55481 | 16.71340 | 36954 ft | 448 kts | 141° |
| 2026-05-06 13:57 | 44.50993 | 16.77407 | 36965 ft | 448 kts | 141° |
| 2026-05-06 13:57 | 44.46503 | 16.83457 | 36972 ft | 448 kts | 141° |
| 2026-05-06 13:58 | 44.42017 | 16.89508 | 36980 ft | 447 kts | 141° |
| 2026-05-06 13:58 | 44.37530 | 16.95528 | 36983 ft | 447 kts | 141° |
| 2026-05-06 13:59 | 44.33037 | 17.01527 | 36986 ft | 446 kts | 141° |
| 2026-05-06 13:59 | 44.28551 | 17.07516 | 36983 ft | 446 kts | 140° |
| 2026-05-06 14:00 | 44.24067 | 17.13496 | 36988 ft | 446 kts | 141° |
| 2026-05-06 14:00 | 44.19584 | 17.19464 | 36991 ft | 446 kts | 141° |
| 2026-05-06 14:01 | 44.15089 | 17.25419 | 36992 ft | 446 kts | 141° |
| 2026-05-06 14:01 | 44.11351 | 17.30366 | 36991 ft | 446 kts | 141° |
| 2026-05-06 14:02 | 44.06852 | 17.36312 | 36989 ft | 447 kts | 140° |
| 2026-05-06 14:02 | 44.02341 | 17.42258 | 36994 ft | 447 kts | 140° |
| 2026-05-06 14:03 | 43.97824 | 17.48194 | 37001 ft | 448 kts | 140° |
| 2026-05-06 14:03 | 43.93294 | 17.54137 | 37001 ft | 448 kts | 140° |
| 2026-05-06 14:04 | 43.88759 | 17.60083 | 37008 ft | 449 kts | 140° |
| 2026-05-06 14:04 | 43.84208 | 17.66022 | 37013 ft | 450 kts | 140° |
| 2026-05-06 14:05 | 43.79647 | 17.71965 | 37023 ft | 450 kts | 140° |
| 2026-05-06 14:05 | 43.75090 | 17.77910 | 37023 ft | 450 kts | 140° |
| 2026-05-06 14:06 | 43.70524 | 17.83841 | 37021 ft | 450 kts | 140° |
| 2026-05-06 14:06 | 43.65955 | 17.89755 | 37025 ft | 450 kts | 140° |
| 2026-05-06 14:07 | 43.61381 | 17.95666 | 37021 ft | 451 kts | 140° |
| 2026-05-06 14:07 | 43.56799 | 18.01568 | 37044 ft | 451 kts | 140° |
| 2026-05-06 14:08 | 43.52205 | 18.07474 | 37048 ft | 451 kts | 140° |
| 2026-05-06 14:08 | 43.47615 | 18.13375 | 37060 ft | 452 kts | 140° |
| 2026-05-06 14:09 | 43.43011 | 18.19268 | 37055 ft | 452 kts | 140° |
| 2026-05-06 14:09 | 43.38405 | 18.25167 | 37053 ft | 453 kts | 140° |
| 2026-05-06 14:10 | 43.33782 | 18.31070 | 37060 ft | 454 kts | 140° |
| 2026-05-06 14:10 | 43.29142 | 18.36959 | 37051 ft | 454 kts | 140° |
| 2026-05-06 14:11 | 43.24506 | 18.42851 | 37052 ft | 455 kts | 140° |
| 2026-05-06 14:11 | 43.19864 | 18.48749 | 37055 ft | 455 kts | 140° |
| 2026-05-06 14:12 | 43.15205 | 18.54637 | 37062 ft | 456 kts | 141° |
| 2026-05-06 14:12 | 43.10613 | 18.60636 | 37063 ft | 457 kts | 138° |
| 2026-05-06 14:13 | 43.06171 | 18.66878 | 37066 ft | 458 kts | 137° |
| 2026-05-06 14:13 | 43.01747 | 18.73147 | 37069 ft | 458 kts | 137° |
| 2026-05-06 14:14 | 42.97268 | 18.79347 | 37072 ft | 459 kts | 138° |
| 2026-05-06 14:14 | 42.92757 | 18.85508 | 37077 ft | 459 kts | 138° |
| 2026-05-06 14:15 | 42.88250 | 18.91671 | 37077 ft | 459 kts | 138° |
| 2026-05-06 14:15 | 42.83739 | 18.97844 | 37087 ft | 460 kts | 138° |
| 2026-05-06 14:16 | 42.79226 | 19.04007 | 37085 ft | 460 kts | 138° |
| 2026-05-06 14:16 | 42.74707 | 19.10170 | 37087 ft | 460 kts | 138° |
| 2026-05-06 14:17 | 42.70179 | 19.16322 | 37085 ft | 460 kts | 138° |
| 2026-05-06 14:17 | 42.65642 | 19.22469 | 37098 ft | 460 kts | 138° |
| 2026-05-06 14:18 | 42.61101 | 19.28610 | 37104 ft | 461 kts | 138° |
| 2026-05-06 14:18 | 42.56555 | 19.34739 | 37112 ft | 461 kts | 138° |
| 2026-05-06 14:19 | 42.52032 | 19.40825 | 37117 ft | 461 kts | 138° |
| 2026-05-06 14:19 | 42.47476 | 19.46952 | 37113 ft | 461 kts | 138° |
| 2026-05-06 14:20 | 42.42912 | 19.53081 | 37110 ft | 461 kts | 139° |
| 2026-05-06 14:20 | 42.38351 | 19.59192 | 37109 ft | 462 kts | 139° |
| 2026-05-06 14:21 | 42.33769 | 19.65303 | 37104 ft | 462 kts | 139° |
| 2026-05-06 14:21 | 42.29188 | 19.71412 | 37106 ft | 462 kts | 139° |
| 2026-05-06 14:22 | 42.24605 | 19.77518 | 37103 ft | 463 kts | 139° |
| 2026-05-06 14:22 | 42.20015 | 19.83607 | 37110 ft | 463 kts | 139° |
| 2026-05-06 14:23 | 42.15413 | 19.89691 | 37110 ft | 463 kts | 139° |
| 2026-05-06 14:23 | 42.10808 | 19.95762 | 37109 ft | 463 kts | 139° |
| 2026-05-06 14:24 | 42.06200 | 20.01833 | 37103 ft | 463 kts | 139° |
| 2026-05-06 14:24 | 42.01589 | 20.07901 | 37102 ft | 464 kts | 139° |
| 2026-05-06 14:25 | 41.96977 | 20.13961 | 37096 ft | 464 kts | 139° |
| 2026-05-06 14:25 | 41.92356 | 20.20017 | 37100 ft | 464 kts | 139° |
| 2026-05-06 14:26 | 41.87732 | 20.26065 | 37110 ft | 464 kts | 139° |
| 2026-05-06 14:26 | 41.83111 | 20.32096 | 37105 ft | 463 kts | 139° |
| 2026-05-06 14:27 | 41.78481 | 20.38113 | 37103 ft | 464 kts | 139° |
| 2026-05-06 14:27 | 41.73841 | 20.44135 | 37105 ft | 464 kts | 139° |
| 2026-05-06 14:28 | 41.69203 | 20.50146 | 37106 ft | 464 kts | 139° |
| 2026-05-06 14:28 | 41.64348 | 20.55794 | 37085 ft | 461 kts | 145° |
| 2026-05-06 14:29 | 41.59308 | 20.61114 | 37089 ft | 462 kts | 144° |
| 2026-05-06 14:29 | 41.54270 | 20.66448 | 37081 ft | 462 kts | 144° |
| 2026-05-06 14:30 | 41.49226 | 20.71765 | 37086 ft | 462 kts | 144° |
| 2026-05-06 14:30 | 41.44174 | 20.77061 | 37084 ft | 462 kts | 145° |
| 2026-05-06 14:31 | 41.39145 | 20.82322 | 37083 ft | 463 kts | 144° |
| 2026-05-06 14:31 | 41.34085 | 20.87621 | 37088 ft | 463 kts | 144° |
| 2026-05-06 14:32 | 41.29018 | 20.92911 | 37087 ft | 463 kts | 144° |
| 2026-05-06 14:32 | 41.23950 | 20.98197 | 37083 ft | 463 kts | 144° |
| 2026-05-06 14:33 | 41.18878 | 21.03472 | 37082 ft | 463 kts | 144° |
| 2026-05-06 14:33 | 41.13798 | 21.08745 | 37075 ft | 464 kts | 144° |
| 2026-05-06 14:34 | 41.08709 | 21.14011 | 37071 ft | 464 kts | 144° |
| 2026-05-06 14:34 | 41.03615 | 21.19272 | 37068 ft | 464 kts | 144° |
| 2026-05-06 14:35 | 40.98512 | 21.24538 | 37062 ft | 465 kts | 144° |
| 2026-05-06 14:35 | 40.93409 | 21.29795 | 37062 ft | 465 kts | 144° |
| 2026-05-06 14:36 | 40.88300 | 21.35046 | 37062 ft | 465 kts | 144° |
| 2026-05-06 14:36 | 40.83100 | 21.40141 | 37055 ft | 464 kts | 147° |
| 2026-05-06 14:37 | 40.77795 | 21.44996 | 37055 ft | 464 kts | 148° |
| 2026-05-06 14:37 | 40.72467 | 21.49834 | 37053 ft | 465 kts | 147° |
| 2026-05-06 14:38 | 40.67175 | 21.54732 | 37049 ft | 465 kts | 147° |
| 2026-05-06 14:38 | 40.61924 | 21.59622 | 37045 ft | 465 kts | 147° |
| 2026-05-06 14:39 | 40.56628 | 21.64524 | 37050 ft | 465 kts | 147° |
| 2026-05-06 14:39 | 40.51327 | 21.69416 | 37050 ft | 465 kts | 147° |
| 2026-05-06 14:40 | 40.46023 | 21.74293 | 37054 ft | 465 kts | 147° |
| 2026-05-06 14:40 | 40.40712 | 21.79162 | 37060 ft | 466 kts | 147° |
| 2026-05-06 14:41 | 40.35395 | 21.84028 | 37065 ft | 466 kts | 147° |
| 2026-05-06 14:41 | 40.30077 | 21.88889 | 37064 ft | 466 kts | 147° |
| 2026-05-06 14:42 | 40.25661 | 21.92923 | 37063 ft | 466 kts | 147° |
| 2026-05-06 14:42 | 40.20335 | 21.97784 | 37061 ft | 466 kts | 147° |
| 2026-05-06 14:43 | 40.15016 | 22.02630 | 37053 ft | 466 kts | 147° |
| 2026-05-06 14:43 | 40.09686 | 22.07458 | 37040 ft | 466 kts | 147° |
| 2026-05-06 14:44 | 40.04353 | 22.12289 | 37033 ft | 466 kts | 147° |
| 2026-05-06 14:45 | 39.96347 | 22.19530 | 37026 ft | 467 kts | 147° |
| 2026-05-06 14:45 | 39.91003 | 22.24345 | 37028 ft | 467 kts | 148° |
| 2026-05-06 14:46 | 39.85651 | 22.29157 | 37027 ft | 467 kts | 147° |
| 2026-05-06 14:46 | 39.80305 | 22.33968 | 37025 ft | 467 kts | 148° |
| 2026-05-06 14:47 | 39.74944 | 22.38776 | 37029 ft | 468 kts | 148° |
| 2026-05-06 14:47 | 39.69614 | 22.43552 | 37031 ft | 468 kts | 148° |
| 2026-05-06 14:48 | 39.64244 | 22.48351 | 37036 ft | 468 kts | 148° |
| 2026-05-06 14:48 | 39.58871 | 22.53132 | 37035 ft | 469 kts | 148° |
| 2026-05-06 14:49 | 39.53488 | 22.57910 | 37038 ft | 469 kts | 148° |
| 2026-05-06 14:49 | 39.48109 | 22.62686 | 37041 ft | 469 kts | 148° |
| 2026-05-06 14:50 | 39.42724 | 22.67456 | 37040 ft | 469 kts | 148° |
| 2026-05-06 14:50 | 39.37342 | 22.72221 | 37041 ft | 469 kts | 147° |
| 2026-05-06 14:51 | 39.31961 | 22.76973 | 37039 ft | 469 kts | 148° |
| 2026-05-06 14:51 | 39.26565 | 22.81726 | 37038 ft | 469 kts | 148° |
| 2026-05-06 14:52 | 39.21180 | 22.86476 | 37036 ft | 469 kts | 147° |
| 2026-05-06 14:52 | 39.15786 | 22.91209 | 37037 ft | 469 kts | 148° |
| 2026-05-06 14:53 | 39.10387 | 22.95943 | 37040 ft | 469 kts | 148° |
| 2026-05-06 14:53 | 39.04988 | 23.00667 | 37044 ft | 470 kts | 148° |
| 2026-05-06 14:54 | 38.99575 | 23.05382 | 37049 ft | 470 kts | 148° |
| 2026-05-06 14:54 | 38.94162 | 23.10093 | 37052 ft | 470 kts | 148° |
| 2026-05-06 14:55 | 38.88744 | 23.14810 | 37054 ft | 471 kts | 148° |
| 2026-05-06 14:55 | 38.83322 | 23.19522 | 37051 ft | 471 kts | 148° |
| 2026-05-06 14:56 | 38.77894 | 23.24224 | 37053 ft | 471 kts | 148° |
| 2026-05-06 14:56 | 38.72461 | 23.28925 | 37055 ft | 471 kts | 148° |
| 2026-05-06 14:57 | 38.67024 | 23.33619 | 37055 ft | 471 kts | 148° |
| 2026-05-06 14:57 | 38.61577 | 23.38304 | 37057 ft | 471 kts | 148° |
| 2026-05-06 14:58 | 38.56141 | 23.42981 | 37057 ft | 471 kts | 148° |
| 2026-05-06 14:58 | 38.50701 | 23.47656 | 37056 ft | 471 kts | 148° |
| 2026-05-06 14:59 | 38.45299 | 23.52292 | 37055 ft | 471 kts | 148° |
| 2026-05-06 14:59 | 38.39818 | 23.56978 | 37062 ft | 471 kts | 148° |
| 2026-05-06 15:00 | 38.34397 | 23.61600 | 37064 ft | 472 kts | 148° |
| 2026-05-06 15:00 | 38.28937 | 23.66250 | 37063 ft | 472 kts | 148° |
| 2026-05-06 15:01 | 38.23477 | 23.70895 | 37065 ft | 472 kts | 148° |
| 2026-05-06 15:01 | 38.18012 | 23.75529 | 37060 ft | 472 kts | 148° |
| 2026-05-06 15:02 | 38.12568 | 23.80211 | 37052 ft | 473 kts | 147° |
| 2026-05-06 15:02 | 38.07165 | 23.85012 | 37076 ft | 474 kts | 146° |
| 2026-05-06 15:03 | 38.01760 | 23.89808 | 37090 ft | 474 kts | 147° |
| 2026-05-06 15:03 | 37.96335 | 23.94557 | 37091 ft | 474 kts | 147° |
| 2026-05-06 15:04 | 37.90906 | 23.99297 | 37091 ft | 474 kts | 147° |
| 2026-05-06 15:04 | 37.85474 | 24.04045 | 37094 ft | 474 kts | 147° |
| 2026-05-06 15:05 | 37.80042 | 24.08784 | 37092 ft | 474 kts | 147° |
| 2026-05-06 15:05 | 37.74605 | 24.13507 | 37090 ft | 474 kts | 147° |
| 2026-05-06 15:06 | 37.69172 | 24.18222 | 37088 ft | 474 kts | 147° |
| 2026-05-06 15:06 | 37.63737 | 24.22931 | 37090 ft | 474 kts | 147° |
| 2026-05-06 15:07 | 37.58301 | 24.27628 | 37088 ft | 474 kts | 147° |
| 2026-05-06 15:07 | 37.52838 | 24.32271 | 37087 ft | 473 kts | 149° |
| 2026-05-06 15:08 | 37.47251 | 24.36663 | 37090 ft | 473 kts | 150° |
| 2026-05-06 15:08 | 37.41615 | 24.40973 | 37092 ft | 474 kts | 150° |
| 2026-05-06 15:09 | 37.35998 | 24.45333 | 37091 ft | 474 kts | 149° |
| 2026-05-06 15:09 | 37.30396 | 24.49725 | 37091 ft | 474 kts | 149° |
| 2026-05-06 15:10 | 37.24792 | 24.54114 | 37094 ft | 474 kts | 149° |
| 2026-05-06 15:10 | 37.19225 | 24.58472 | 37090 ft | 474 kts | 149° |
| 2026-05-06 15:11 | 37.13619 | 24.62842 | 37088 ft | 474 kts | 150° |
| 2026-05-06 15:11 | 37.08001 | 24.67197 | 37094 ft | 475 kts | 150° |
| 2026-05-06 15:12 | 37.02389 | 24.71545 | 37098 ft | 475 kts | 150° |
| 2026-05-06 15:12 | 36.96768 | 24.75896 | 37091 ft | 475 kts | 150° |
| 2026-05-06 15:13 | 36.91137 | 24.80243 | 36860 ft | 477 kts | 150° |
| 2026-05-06 15:13 | 36.88290 | 24.82442 | 35974 ft | 482 kts | 150° |
| 2026-05-06 15:13 | 36.85441 | 24.84647 | 35263 ft | 483 kts | 150° |
| 2026-05-06 15:13 | 36.82578 | 24.86865 | 34446 ft | 486 kts | 150° |
| 2026-05-06 15:14 | 36.79694 | 24.89099 | 33719 ft | 486 kts | 150° |
| 2026-05-06 15:14 | 36.76840 | 24.91303 | 33223 ft | 481 kts | 150° |
| 2026-05-06 15:14 | 36.74007 | 24.93489 | 32666 ft | 477 kts | 150° |
| 2026-05-06 15:14 | 36.71202 | 24.95650 | 32129 ft | 473 kts | 150° |
| 2026-05-06 15:15 | 36.68404 | 24.97802 | 31578 ft | 470 kts | 150° |
| 2026-05-06 15:15 | 36.65628 | 24.99936 | 31038 ft | 467 kts | 150° |
| 2026-05-06 15:15 | 36.62870 | 25.02051 | 30495 ft | 464 kts | 150° |
| 2026-05-06 15:15 | 36.60126 | 25.04152 | 29920 ft | 462 kts | 149° |
| 2026-05-06 15:16 | 36.57405 | 25.06234 | 29368 ft | 457 kts | 149° |
| 2026-05-06 15:16 | 36.54708 | 25.08298 | 28841 ft | 453 kts | 149° |
| 2026-05-06 15:16 | 36.52033 | 25.10343 | 28321 ft | 450 kts | 149° |
| 2026-05-06 15:16 | 36.49376 | 25.12375 | 27811 ft | 446 kts | 149° |
| 2026-05-06 15:17 | 36.46774 | 25.14364 | 27313 ft | 443 kts | 149° |
| 2026-05-06 15:17 | 36.44157 | 25.16358 | 26835 ft | 440 kts | 149° |
| 2026-05-06 15:17 | 36.41553 | 25.18337 | 26351 ft | 438 kts | 149° |
| 2026-05-06 15:17 | 36.38959 | 25.20306 | 25900 ft | 436 kts | 149° |
| 2026-05-06 15:18 | 36.36370 | 25.22266 | 25433 ft | 434 kts | 149° |
| 2026-05-06 15:18 | 36.33798 | 25.24213 | 24994 ft | 433 kts | 149° |
| 2026-05-06 15:18 | 36.31233 | 25.26159 | 24548 ft | 432 kts | 149° |
| 2026-05-06 15:18 | 36.28675 | 25.28100 | 24093 ft | 431 kts | 148° |
| 2026-05-06 15:19 | 36.26113 | 25.30045 | 23622 ft | 431 kts | 148° |
| 2026-05-06 15:19 | 36.23562 | 25.31985 | 23113 ft | 430 kts | 148° |
| 2026-05-06 15:19 | 36.21022 | 25.33914 | 22637 ft | 427 kts | 148° |
| 2026-05-06 15:19 | 36.18496 | 25.35828 | 22151 ft | 424 kts | 149° |
| 2026-05-06 15:20 | 36.15984 | 25.37728 | 21659 ft | 422 kts | 149° |
| 2026-05-06 15:20 | 36.13476 | 25.39610 | 21160 ft | 420 kts | 151° |
| 2026-05-06 15:20 | 36.10828 | 25.41102 | 20655 ft | 417 kts | 162° |
| 2026-05-06 15:20 | 36.08060 | 25.42128 | 19919 ft | 418 kts | 171° |
| 2026-05-06 15:21 | 36.05170 | 25.42287 | 19384 ft | 412 kts | 186° |
| 2026-05-06 15:21 | 36.02352 | 25.42104 | 18731 ft | 400 kts | 186° |
| 2026-05-06 15:21 | 35.99586 | 25.41954 | 17818 ft | 394 kts | 185° |
| 2026-05-06 15:21 | 35.96872 | 25.41821 | 16869 ft | 387 kts | 185° |
| 2026-05-06 15:22 | 35.94200 | 25.41691 | 15948 ft | 381 kts | 184° |
| 2026-05-06 15:22 | 35.91550 | 25.41561 | 15280 ft | 380 kts | 184° |
| 2026-05-06 15:22 | 35.88925 | 25.41425 | 14823 ft | 375 kts | 184° |
| 2026-05-06 15:22 | 35.86325 | 25.41374 | 14345 ft | 373 kts | 180° |
| 2026-05-06 15:23 | 35.83744 | 25.41509 | 13864 ft | 370 kts | 178° |
| 2026-05-06 15:23 | 35.81184 | 25.41693 | 13320 ft | 367 kts | 178° |
| 2026-05-06 15:23 | 35.78650 | 25.41898 | 12793 ft | 364 kts | 177° |
| 2026-05-06 15:23 | 35.76135 | 25.42106 | 12267 ft | 361 kts | 177° |
| 2026-05-06 15:24 | 35.73659 | 25.42306 | 11583 ft | 363 kts | 177° |
| 2026-05-06 15:24 | 35.71131 | 25.42503 | 10916 ft | 365 kts | 177° |
| 2026-05-06 15:24 | 35.68593 | 25.42693 | 10312 ft | 364 kts | 177° |
| 2026-05-06 15:24 | 35.66105 | 25.42873 | 10187 ft | 352 kts | 177° |
| 2026-05-06 15:25 | 35.63710 | 25.43045 | 10076 ft | 338 kts | 177° |
| 2026-05-06 15:25 | 35.61408 | 25.43211 | 9930 ft | 326 kts | 177° |
| 2026-05-06 15:25 | 35.59173 | 25.43375 | 9603 ft | 318 kts | 177° |
| 2026-05-06 15:25 | 35.57006 | 25.43535 | 9169 ft | 306 kts | 177° |
| 2026-05-06 15:26 | 35.55587 | 25.43639 | 8873 ft | 298 kts | 177° |
| 2026-05-06 15:26 | 35.53549 | 25.43790 | 8444 ft | 289 kts | 177° |
| 2026-05-06 15:26 | 35.51561 | 25.43937 | 8014 ft | 284 kts | 177° |
| 2026-05-06 15:26 | 35.49590 | 25.44080 | 7323 ft | 288 kts | 177° |
| 2026-05-06 15:27 | 35.47565 | 25.44226 | 6532 ft | 293 kts | 177° |
| 2026-05-06 15:27 | 35.45551 | 25.44373 | 5787 ft | 294 kts | 177° |
| 2026-05-06 15:27 | 35.43514 | 25.44522 | 5098 ft | 292 kts | 177° |
| 2026-05-06 15:27 | 35.41514 | 25.44669 | 4624 ft | 281 kts | 177° |
| 2026-05-06 15:28 | 35.39639 | 25.44807 | 4506 ft | 259 kts | 177° |
| 2026-05-06 15:28 | 35.37911 | 25.44866 | 4371 ft | 238 kts | 188° |
| 2026-05-06 15:28 | 35.36443 | 25.44212 | 4248 ft | 218 kts | 217° |
| 2026-05-06 15:28 | 35.35461 | 25.42894 | 4129 ft | 205 kts | 244° |
| 2026-05-06 15:29 | 35.34864 | 25.41354 | 3988 ft | 198 kts | 246° |
| 2026-05-06 15:29 | 35.34281 | 25.39838 | 3716 ft | 196 kts | 246° |
| 2026-05-06 15:29 | 35.33703 | 25.38343 | 3449 ft | 193 kts | 247° |
| 2026-05-06 15:29 | 35.33127 | 25.36850 | 3175 ft | 195 kts | 246° |
| 2026-05-06 15:30 | 35.32800 | 25.35255 | 2900 ft | 193 kts | 268° |
| 2026-05-06 15:30 | 35.32886 | 25.33629 | 2645 ft | 190 kts | 276° |
| 2026-05-06 15:30 | 35.33001 | 25.32032 | 2391 ft | 185 kts | 276° |
| 2026-05-06 15:30 | 35.33108 | 25.30493 | 2147 ft | 178 kts | 275° |
| 2026-05-06 15:31 | 35.33212 | 25.29007 | 1894 ft | 171 kts | 276° |
| 2026-05-06 15:31 | 35.33323 | 25.27588 | 1592 ft | 164 kts | 276° |
| 2026-05-06 15:31 | 35.33405 | 25.26278 | 1358 ft | 148 kts | 277° |
| 2026-05-06 15:32 | 35.33598 | 25.23792 | 904 ft | 145 kts | 276° |
| 2026-05-06 15:32 | 35.33669 | 25.22565 | 698 ft | 145 kts | 275° |
| 2026-05-06 15:32 | 35.33749 | 25.21321 | 488 ft | 147 kts | 276° |
| 2026-05-06 15:32 | 35.33835 | 25.20073 | 292 ft | 147 kts | 275° |
| 2026-05-06 15:33 | 35.33919 | 25.18829 | 101 ft | 143 kts | 276° |
| 2026-05-06 15:33 | 35.33989 | 25.17851 | 93 ft | 76 kts | 274° |
| 2026-05-06 15:33 | 35.34016 | 25.17441 | 91 ft | 36 kts | 275° |
| 2026-05-06 15:33 | 35.34019 | 25.17181 | 90 ft | 26 kts | 256° |
| 2026-05-06 15:34 | 35.33978 | 25.17062 | 90 ft | 4 kts | 243° |
| 2026-05-06 15:34 | 35.33950 | 25.17050 | 90 ft | 5 kts | 160° |
| 2026-05-06 15:34 | 35.33939 | 25.17105 | 90 ft | 9 kts | 92° |
| 2026-05-06 15:34 | 35.33934 | 25.17191 | 91 ft | 12 kts | 95° |
| 2026-05-06 15:35 | 35.33926 | 25.17304 | 92 ft | 15 kts | 95° |
| 2026-05-06 15:35 | 35.33916 | 25.17445 | 91 ft | 18 kts | 95° |
| 2026-05-06 15:35 | 35.33905 | 25.17593 | 91 ft | 12 kts | 96° |
| 2026-05-06 15:35 | 35.33850 | 25.17610 | 92 ft | 8 kts | 233° |
| 2026-05-06 15:36 | 35.33863 | 25.17556 | 91 ft | 5 kts | 311° |
| 2026-05-06 15:36 | 35.33871 | 25.17544 | 91 ft | 0 kts | 313° |